Time;durP1;ratioP1;P1;durP2;ratioP2;P2;SDS_P1;SDS_P2;PMS_P1;PMS_P2;Temp;Humidity;BMP_temperature;BMP_pressure;BME280_temperature;BME280_humidity;BME280_pressure;Samples;Min_cycle;Max_cycle;Signal;HPM_P1;HPM_P2
2023/08/11 00:01:14;;;;;;;;;3.00;3.00;;;;;;;;4795359;29;9447;-95
2023/08/11 00:03:39;;;;;;;;;2.00;2.00;;;;;;;;4803764;29;8869;-94
2023/08/11 00:06:07;;;;;;;;;1.67;1.67;;;;;;;;4799041;29;8856;-95
2023/08/11 00:08:32;;;;;;;;;2.75;2.75;;;;;;;;4799100;29;8866;-95
2023/08/11 00:10:58;;;;;;;;;3.00;3.00;;;;;;;;4802801;29;8843;-95
2023/08/11 00:13:23;;;;;;;;;2.00;2.00;;;;;;;;4797347;29;8887;-95
2023/08/11 00:15:49;;;;;;;;;2.00;2.00;;;;;;;;4810274;29;8836;-95
2023/08/11 00:18:14;;;;;;;;;2.00;2.00;;;;;;;;4804437;29;8898;-94
2023/08/11 00:20:39;;;;;;;;;3.00;3.00;;;;;;;;4792173;29;8878;-95
2023/08/11 00:23:05;;;;;;;;;2.00;2.00;;;;;;;;4793329;29;8857;-95
2023/08/11 00:25:30;;;;;;;;;3.00;3.00;;;;;;;;4807787;29;8847;-94
2023/08/11 00:27:55;;;;;;;;;6.67;5.67;;;;;;;;4805287;29;9062;-94
2023/08/11 00:30:20;;;;;;;;;2.00;2.00;;;;;;;;4802231;29;8856;-95
2023/08/11 00:32:46;;;;;;;;;4.00;2.33;;;;;;;;4810811;29;9716;-94
2023/08/11 00:35:11;;;;;;;;;2.00;2.00;;;;;;;;4801673;29;8893;-95
2023/08/11 00:37:36;;;;;;;;;2.67;2.67;;;;;;;;4807698;29;8859;-94
2023/08/11 00:40:04;;;;;;;;;3.00;3.00;;;;;;;;4809816;29;10209;-95
2023/08/11 00:42:29;;;;;;;;;3.75;3.75;;;;;;;;4808588;29;8827;-95
2023/08/11 00:44:57;;;;;;;;;4.00;4.00;;;;;;;;4802930;29;8877;-95
2023/08/11 00:47:23;;;;;;;;;4.00;4.00;;;;;;;;4802600;29;8815;-95
2023/08/11 00:49:49;;;;;;;;;3.00;3.00;;;;;;;;4795442;29;9648;-95
2023/08/11 00:52:14;;;;;;;;;3.00;3.00;;;;;;;;4798789;29;8903;-94
2023/08/11 00:54:41;;;;;;;;;1.00;1.00;;;;;;;;4807458;29;8843;-95
2023/08/11 00:57:06;;;;;;;;;5.00;4.00;;;;;;;;4803226;29;8871;-95
2023/08/11 00:59:31;;;;;;;;;3.67;3.67;;;;;;;;4793010;29;8884;-94
2023/08/11 01:01:57;;;;;;;;;4.00;4.00;;;;;;;;4798736;29;8867;-94
2023/08/11 01:04:22;;;;;;;;;4.00;4.00;;;;;;;;4804730;29;8904;-95
2023/08/11 01:06:47;;;;;;;;;4.00;4.00;;;;;;;;4792598;29;9614;-95
2023/08/11 01:09:28;;;;;;;;;3.00;3.00;;;;;;;;4792745;29;8891;-94
2023/08/11 01:12:06;;;;;;;;;2.25;2.25;;;;;;;;4810330;29;8838;-95
2023/08/11 01:14:52;;;;;;;;;3.50;2.75;;;;;;;;4808336;29;9782;-94
2023/08/11 01:17:18;;;;;;;;;3.25;3.25;;;;;;;;4810339;29;8876;-95
2023/08/11 01:19:44;;;;;;;;;3.00;3.00;;;;;;;;4795496;29;9642;-95
2023/08/11 01:22:19;;;;;;;;;3.67;3.67;;;;;;;;4792136;29;11671;-94
2023/08/11 01:24:45;;;;;;;;;3.00;3.00;;;;;;;;4812589;29;8862;-93
2023/08/11 01:27:11;;;;;;;;;3.00;3.00;;;;;;;;4809293;29;8867;-94
2023/08/11 01:29:36;;;;;;;;;2.00;2.00;;;;;;;;4807624;29;8855;-95
2023/08/11 01:32:01;;;;;;;;;3.33;3.33;;;;;;;;4802385;29;9012;-95
2023/08/11 01:34:26;;;;;;;;;1.67;1.67;;;;;;;;4800892;29;8867;-95
2023/08/11 01:36:57;;;;;;;;;3.00;3.00;;;;;;;;4805296;29;8874;-95
2023/08/11 01:39:23;;;;;;;;;4.75;4.75;;;;;;;;4791086;29;8913;-94
2023/08/11 01:41:48;;;;;;;;;2.00;2.00;;;;;;;;4795342;29;8862;-95
2023/08/11 01:44:13;;;;;;;;;3.67;3.67;;;;;;;;4796176;29;9700;-95
2023/08/11 01:46:39;;;;;;;;;1.33;1.33;;;;;;;;4790158;29;8918;-95
2023/08/11 01:49:04;;;;;;;;;4.00;4.00;;;;;;;;4791048;29;9091;-95
2023/08/11 01:51:30;;;;;;;;;3.00;3.00;;;;;;;;4797157;29;8883;-95
2023/08/11 01:53:55;;;;;;;;;3.00;3.00;;;;;;;;4808828;29;8859;-95
2023/08/11 01:56:20;;;;;;;;;2.33;2.33;;;;;;;;4807504;29;8995;-95
2023/08/11 01:58:46;;;;;;;;;2.00;2.00;;;;;;;;4807580;29;8854;-94
2023/08/11 02:01:13;;;;;;;;;2.33;2.33;;;;;;;;4798633;29;8898;-94
2023/08/11 02:03:38;;;;;;;;;3.00;3.00;;;;;;;;4803730;29;8859;-95
2023/08/11 02:06:03;;;;;;;;;2.00;2.00;;;;;;;;4807921;29;8936;-95
2023/08/11 02:08:29;;;;;;;;;2.00;2.00;;;;;;;;4800016;29;8865;-95
2023/08/11 02:10:54;;;;;;;;;2.67;2.67;;;;;;;;4792189;29;8958;-95
2023/08/11 02:13:19;;;;;;;;;2.33;2.33;;;;;;;;4790526;29;8901;-94
2023/08/11 02:15:44;;;;;;;;;3.67;3.67;;;;;;;;4806122;29;8887;-95
2023/08/11 02:18:10;;;;;;;;;4.00;4.00;;;;;;;;4812649;29;9731;-95
2023/08/11 02:20:35;;;;;;;;;3.67;3.67;;;;;;;;4813174;29;9002;-94
2023/08/11 02:23:00;;;;;;;;;4.00;4.00;;;;;;;;4812332;29;8878;-94
2023/08/11 02:25:26;;;;;;;;;4.00;4.00;;;;;;;;4813283;29;8881;-94
2023/08/11 02:27:51;;;;;;;;;5.00;5.00;;;;;;;;4810732;29;8863;-95
2023/08/11 02:30:17;;;;;;;;;3.00;3.00;;;;;;;;4813374;29;8837;-95
2023/08/11 02:32:45;;;;;;;;;3.00;3.00;;;;;;;;4813165;29;8979;-94
2023/08/11 02:35:11;;;;;;;;;1.75;1.75;;;;;;;;4808556;29;8844;-94
2023/08/11 02:37:36;;;;;;;;;4.00;4.00;;;;;;;;4810509;29;8870;-95
2023/08/11 02:40:01;;;;;;;;;3.67;3.67;;;;;;;;4808778;29;8885;-94
2023/08/11 02:42:26;;;;;;;;;3.00;3.00;;;;;;;;4812815;29;8917;-94
2023/08/11 02:44:52;;;;;;;;;5.67;4.00;;;;;;;;4808217;29;8847;-94
2023/08/11 02:47:18;;;;;;;;;4.00;4.00;;;;;;;;4810637;29;8951;-94
2023/08/11 02:49:43;;;;;;;;;4.00;4.00;;;;;;;;4810238;29;8856;-94
2023/08/11 02:52:09;;;;;;;;;2.33;2.33;;;;;;;;4810799;29;8931;-95
2023/08/11 02:54:34;;;;;;;;;4.00;4.00;;;;;;;;4812842;29;8855;-94
2023/08/11 02:57:00;;;;;;;;;4.00;4.00;;;;;;;;4810828;29;8878;-95
2023/08/11 02:59:25;;;;;;;;;5.00;5.00;;;;;;;;4809787;29;8982;-94
2023/08/11 03:01:50;;;;;;;;;5.00;5.00;;;;;;;;4808375;29;8851;-95
2023/08/11 03:04:18;;;;;;;;;4.33;4.33;;;;;;;;4812282;29;8868;-95
2023/08/11 03:06:45;;;;;;;;;3.00;3.00;;;;;;;;4815763;29;8833;-95
2023/08/11 03:09:10;;;;;;;;;4.25;4.25;;;;;;;;4812205;29;8832;-95
2023/08/11 03:11:35;;;;;;;;;3.67;3.67;;;;;;;;4811957;29;8899;-94
2023/08/11 03:14:01;;;;;;;;;6.00;6.00;;;;;;;;4813490;29;8954;-95
2023/08/11 03:16:26;;;;;;;;;4.67;4.67;;;;;;;;4804140;29;8910;-95
2023/08/11 03:18:52;;;;;;;;;5.00;5.00;;;;;;;;4811703;29;9592;-94
2023/08/11 03:21:17;;;;;;;;;4.00;4.00;;;;;;;;4812707;29;8921;-95
2023/08/11 03:23:42;;;;;;;;;5.00;5.00;;;;;;;;4813164;29;11659;-95
2023/08/11 03:26:09;;;;;;;;;5.00;5.00;;;;;;;;4809055;29;8875;-94
2023/08/11 03:28:34;;;;;;;;;4.75;4.75;;;;;;;;4811971;29;8934;-95
2023/08/11 03:30:59;;;;;;;;;6.00;5.00;;;;;;;;4814621;29;9006;-94
2023/08/11 03:33:25;;;;;;;;;4.00;4.00;;;;;;;;4812608;29;8903;-95
2023/08/11 03:35:50;;;;;;;;;4.33;4.33;;;;;;;;4809414;29;8991;-95
2023/08/11 03:38:15;;;;;;;;;5.33;5.33;;;;;;;;4807888;29;8881;-95
2023/08/11 03:40:40;;;;;;;;;5.67;5.67;;;;;;;;4806950;29;8869;-95
2023/08/11 03:43:06;;;;;;;;;4.00;4.00;;;;;;;;4815309;29;8864;-95
2023/08/11 03:45:31;;;;;;;;;6.00;5.00;;;;;;;;4807401;29;8849;-94
2023/08/11 03:47:59;;;;;;;;;3.67;3.67;;;;;;;;4812623;29;8868;-95
2023/08/11 03:50:24;;;;;;;;;4.25;4.25;;;;;;;;4803878;29;8844;-95
2023/08/11 03:52:49;;;;;;;;;4.00;4.00;;;;;;;;4809920;29;8899;-95
2023/08/11 03:55:14;;;;;;;;;5.00;5.00;;;;;;;;4808946;29;8871;-95
2023/08/11 03:57:40;;;;;;;;;4.33;4.33;;;;;;;;4810538;29;8973;-94
2023/08/11 04:00:05;;;;;;;;;3.67;3.67;;;;;;;;4810154;29;8865;-96
2023/08/11 04:02:31;;;;;;;;;5.00;5.00;;;;;;;;4808830;29;8926;-95
2023/08/11 04:04:56;;;;;;;;;4.33;4.33;;;;;;;;4803058;29;8879;-94
2023/08/11 04:07:21;;;;;;;;;4.33;4.33;;;;;;;;4798459;29;9662;-95
2023/08/11 04:09:48;;;;;;;;;4.67;4.67;;;;;;;;4798166;29;8855;-95
2023/08/11 04:12:13;;;;;;;;;3.75;3.75;;;;;;;;4789684;29;8962;-95
2023/08/11 04:14:38;;;;;;;;;3.67;3.67;;;;;;;;4790725;29;8879;-94
2023/08/11 04:17:03;;;;;;;;;4.67;4.67;;;;;;;;4803812;29;8938;-95
2023/08/11 04:19:29;;;;;;;;;4.67;4.67;;;;;;;;4803045;29;8871;-94
2023/08/11 04:21:54;;;;;;;;;7.33;7.33;;;;;;;;4795000;29;8886;-94
2023/08/11 04:24:19;;;;;;;;;6.00;6.00;;;;;;;;4787863;29;8942;-95
2023/08/11 04:26:45;;;;;;;;;5.33;5.33;;;;;;;;4800426;29;8870;-95
2023/08/11 04:29:10;;;;;;;;;4.33;4.33;;;;;;;;4795440;29;8905;-95
2023/08/11 04:31:35;;;;;;;;;4.00;4.00;;;;;;;;4804820;29;8930;-94
2023/08/11 04:34:00;;;;;;;;;5.67;5.67;;;;;;;;4803250;29;8877;-95
2023/08/11 04:36:27;;;;;;;;;7.00;7.00;;;;;;;;4790333;29;8897;-94
2023/08/11 04:38:52;;;;;;;;;8.00;8.00;;;;;;;;4794771;29;8865;-94
2023/08/11 04:41:18;;;;;;;;;7.00;7.00;;;;;;;;4795882;29;8871;-94
2023/08/11 04:43:43;;;;;;;;;5.00;5.00;;;;;;;;4810109;29;8913;-95
2023/08/11 04:46:08;;;;;;;;;5.67;5.67;;;;;;;;4794256;29;8924;-95
2023/08/11 04:48:33;;;;;;;;;8.00;8.00;;;;;;;;4804427;29;8982;-95
2023/08/11 04:50:59;;;;;;;;;5.33;5.33;;;;;;;;4803963;29;8871;-95
2023/08/11 04:53:24;;;;;;;;;4.67;4.67;;;;;;;;4797327;29;8997;-94
2023/08/11 04:55:51;;;;;;;;;5.33;5.33;;;;;;;;4805903;29;8880;-95
2023/08/11 04:58:16;;;;;;;;;4.00;4.00;;;;;;;;4795458;29;9793;-95
2023/08/11 05:00:42;;;;;;;;;5.67;5.67;;;;;;;;4806793;29;8954;-94
2023/08/11 05:03:08;;;;;;;;;4.00;3.25;;;;;;;;4801525;29;8794;-95
2023/08/11 05:05:34;;;;;;;;;5.00;5.00;;;;;;;;4802770;29;8993;-94
2023/08/11 05:07:59;;;;;;;;;4.00;4.00;;;;;;;;4792773;29;8879;-95
2023/08/11 05:10:24;;;;;;;;;5.00;5.00;;;;;;;;4799634;29;8925;-94
2023/08/11 05:12:50;;;;;;;;;5.00;5.00;;;;;;;;4798497;29;8881;-94
2023/08/11 05:15:15;;;;;;;;;5.33;5.33;;;;;;;;4793189;29;8881;-95
2023/08/11 05:17:40;;;;;;;;;5.67;5.67;;;;;;;;4793765;29;8850;-95
2023/08/11 05:20:09;;;;;;;;;4.00;4.00;;;;;;;;4802818;29;8907;-95
2023/08/11 05:22:35;;;;;;;;;6.00;5.75;;;;;;;;4807422;29;8843;-95
2023/08/11 05:25:02;;;;;;;;;3.67;3.67;;;;;;;;4802052;29;8868;-95
2023/08/11 05:27:27;;;;;;;;;4.50;4.50;;;;;;;;4789723;29;8842;-94
2023/08/11 05:29:52;;;;;;;;;4.67;4.67;;;;;;;;4796567;29;8862;-95
2023/08/11 05:32:17;;;;;;;;;4.00;4.00;;;;;;;;4802977;29;8893;-95
2023/08/11 05:34:43;;;;;;;;;5.67;5.67;;;;;;;;4804204;29;8969;-95
2023/08/11 05:37:08;;;;;;;;;6.00;6.00;;;;;;;;4791918;29;9053;-95
2023/08/11 05:39:33;;;;;;;;;6.00;6.00;;;;;;;;4794222;29;8937;-95
2023/08/11 05:41:59;;;;;;;;;6.00;6.00;;;;;;;;4800326;29;8940;-95
2023/08/11 05:44:24;;;;;;;;;4.67;4.67;;;;;;;;4795589;29;8950;-95
2023/08/11 05:46:49;;;;;;;;;4.00;4.00;;;;;;;;4803655;29;8863;-94
2023/08/11 05:49:15;;;;;;;;;6.33;6.33;;;;;;;;4802836;29;8892;-94
2023/08/11 05:51:40;;;;;;;;;4.00;4.00;;;;;;;;4796289;29;8984;-94
2023/08/11 05:54:05;;;;;;;;;3.33;3.33;;;;;;;;4802024;29;8874;-95
2023/08/11 05:56:31;;;;;;;;;5.00;5.00;;;;;;;;4806554;29;8878;-95
2023/08/11 05:58:56;;;;;;;;;6.00;6.00;;;;;;;;4801570;29;8901;-94
2023/08/11 06:01:21;;;;;;;;;5.00;5.00;;;;;;;;4796670;29;9516;-95
2023/08/11 06:03:46;;;;;;;;;5.00;4.00;;;;;;;;4795867;29;8924;-96
2023/08/11 06:06:12;;;;;;;;;4.00;4.00;;;;;;;;4793957;29;8855;-95
2023/08/11 06:08:37;;;;;;;;;4.00;4.00;;;;;;;;4798089;29;8874;-95
2023/08/11 06:11:05;;;;;;;;;5.00;5.00;;;;;;;;4790879;29;8870;-95
2023/08/11 06:13:31;;;;;;;;;6.50;6.50;;;;;;;;4799000;29;8956;-95
2023/08/11 06:15:56;;;;;;;;;3.67;3.67;;;;;;;;4798314;29;8858;-96
2023/08/11 06:18:21;;;;;;;;;3.33;3.33;;;;;;;;4801818;29;8859;-95
2023/08/11 06:20:47;;;;;;;;;3.67;3.67;;;;;;;;4807325;29;8852;-94
2023/08/11 06:23:12;;;;;;;;;4.33;4.33;;;;;;;;4795182;29;8875;-95
2023/08/11 06:25:38;;;;;;;;;3.33;3.33;;;;;;;;4802200;29;8867;-95
2023/08/11 06:28:03;;;;;;;;;3.00;3.00;;;;;;;;4800951;29;8875;-95
2023/08/11 06:30:28;;;;;;;;;8.00;6.67;;;;;;;;4794393;29;8851;-95
2023/08/11 06:32:54;;;;;;;;;8.00;8.00;;;;;;;;4791266;29;8953;-92
2023/08/11 06:35:19;;;;;;;;;5.00;5.00;;;;;;;;4790257;29;9638;-92
2023/08/11 06:37:44;;;;;;;;;3.67;3.67;;;;;;;;4798424;29;8903;-91
2023/08/11 06:40:11;;;;;;;;;5.00;5.00;;;;;;;;4794348;29;8910;-96
2023/08/11 06:51:50;;;;;;;;;6.50;6.00;;;;;;;;4880218;24;8776;-94
2023/08/11 06:54:18;;;;;;;;;5.00;5.00;;;;;;;;4782601;29;8822;-94
2023/08/11 07:02:02;;;;;;;;;4.00;4.00;;;;;;;;4788260;24;10359;-95
2023/08/11 07:07:59;;;;;;;;;3.00;3.00;;;;;;;;4841042;29;8757;-96
2023/08/11 07:13:46;;;;;;;;;4.00;4.00;;;;;;;;4759287;30;8829;-96
2023/08/11 07:16:27;;;;;;;;;4.75;4.75;;;;;;;;4934742;24;8809;-96
2023/08/11 07:23:57;;;;;;;;;3.00;3.00;;;;;;;;4805932;29;8878;-93
2023/08/11 07:26:25;;;;;;;;;4.00;4.00;;;;;;;;4791516;29;8871;-94
2023/08/11 07:28:50;;;;;;;;;3.50;3.50;;;;;;;;4806868;29;8891;-93
2023/08/11 07:31:15;;;;;;;;;3.67;3.67;;;;;;;;4780674;29;8863;-94
2023/08/11 07:33:49;;;;;;;;;3.00;3.00;;;;;;;;4784972;29;8873;-95
2023/08/11 07:36:45;;;;;;;;;;;;;;;;;;;;;
2023/08/11 07:47:54;;;;;;;;;4.25;4.25;;;;;;;;4189153;27;8945;-96
2023/08/11 07:50:19;;;;;;;;;2.00;2.00;;;;;;;;4817803;29;8837;-96
2023/08/11 07:52:45;;;;;;;;;3.33;3.33;;;;;;;;4825363;29;8866;-96
2023/08/11 07:55:10;;;;;;;;;2.00;2.00;;;;;;;;4812342;29;8889;-96
2023/08/11 07:57:36;;;;;;;;;5.67;3.67;;;;;;;;4818582;29;8899;-96
2023/08/11 08:00:01;;;;;;;;;3.00;3.00;;;;;;;;4805065;29;8862;-96
2023/08/11 08:02:26;;;;;;;;;2.00;2.00;;;;;;;;4810145;29;8843;-96
2023/08/11 08:04:52;;;;;;;;;2.33;2.33;;;;;;;;4811025;29;8893;-96
2023/08/11 08:07:17;;;;;;;;;4.00;4.00;;;;;;;;4829737;29;8851;-96
2023/08/11 08:09:42;;;;;;;;;3.00;3.00;;;;;;;;4829202;29;9559;-96
2023/08/11 08:12:08;;;;;;;;;2.00;2.00;;;;;;;;4829645;29;8858;-96
2023/08/11 08:14:33;;;;;;;;;3.00;3.00;;;;;;;;4811690;29;8886;-96
2023/08/11 08:17:01;;;;;;;;;3.00;3.00;;;;;;;;4813042;29;8855;-96
2023/08/11 08:19:28;;;;;;;;;2.25;2.25;;;;;;;;4812833;29;8842;-96
2023/08/11 08:21:54;;;;;;;;;2.00;2.00;;;;;;;;4829474;29;9705;-96
2023/08/11 08:24:19;;;;;;;;;2.00;2.00;;;;;;;;4812499;29;8863;-96
2023/08/11 08:26:47;;;;;;;;;1.00;1.00;;;;;;;;4827243;29;8835;-96
2023/08/11 08:29:12;;;;;;;;;1.00;1.00;;;;;;;;4827004;29;8791;-96
2023/08/11 08:31:40;;;;;;;;;1.33;1.33;;;;;;;;4808800;29;9608;-96
2023/08/11 08:34:05;;;;;;;;;1.25;1.25;;;;;;;;4824773;29;8831;-96
2023/08/11 08:36:31;;;;;;;;;2.00;2.00;;;;;;;;4826177;29;9619;-96
2023/08/11 08:38:56;;;;;;;;;1.00;1.00;;;;;;;;4815923;29;8833;-96
2023/08/11 08:41:27;;;;;;;;;1.00;1.00;;;;;;;;4795334;29;8910;-96
2023/08/11 08:43:53;;;;;;;;;2.25;2.25;;;;;;;;4817137;29;8823;-96
2023/08/11 08:46:20;;;;;;;;;2.67;2.67;;;;;;;;4817449;29;8837;-96
2023/08/11 08:49:08;;;;;;;;;1.67;1.67;;;;;;;;4812908;29;8966;-96
2023/08/11 08:51:36;;;;;;;;;2.00;2.00;;;;;;;;4791973;29;9091;-96
2023/08/11 08:54:02;;;;;;;;;1.67;1.67;;;;;;;;4810563;29;9210;-96
2023/08/11 08:56:27;;;;;;;;;3.00;3.00;;;;;;;;4821233;29;9053;-96
2023/08/11 08:58:52;;;;;;;;;2.33;2.33;;;;;;;;4822410;29;8879;-96
2023/08/11 09:01:18;;;;;;;;;2.00;2.00;;;;;;;;4809614;29;8872;-96
2023/08/11 09:03:44;;;;;;;;;2.00;2.00;;;;;;;;4811825;29;8886;-96
2023/08/11 09:06:10;;;;;;;;;1.00;1.00;;;;;;;;4798101;29;8829;-96
2023/08/11 09:08:39;;;;;;;;;1.00;1.00;;;;;;;;4797563;29;8921;-96
2023/08/11 09:11:04;;;;;;;;;1.00;1.00;;;;;;;;4795983;29;9014;-96
2023/08/11 09:13:31;;;;;;;;;2.33;2.00;;;;;;;;4812540;29;8889;-96
2023/08/11 09:15:56;;;;;;;;;2.00;2.00;;;;;;;;4812990;29;8819;-96
2023/08/11 09:18:22;;;;;;;;;3.00;3.00;;;;;;;;4819660;29;8924;-96
2023/08/11 09:20:48;;;;;;;;;3.00;3.00;;;;;;;;4814030;29;10169;-96
2023/08/11 09:23:13;;;;;;;;;2.00;2.00;;;;;;;;4822747;29;8891;-96
2023/08/11 09:25:38;;;;;;;;;1.33;1.33;;;;;;;;4804987;29;8835;-96
2023/08/11 09:28:09;;;;;;;;;2.00;2.00;;;;;;;;4793902;29;8957;-96
2023/08/11 09:30:35;;;;;;;;;2.00;2.00;;;;;;;;4817217;29;8826;-96
2023/08/11 09:33:01;;;;;;;;;1.33;1.33;;;;;;;;4807755;29;8865;-96
2023/08/11 09:35:29;;;;;;;;;1.25;1.25;;;;;;;;4816951;29;8823;-95
2023/08/11 09:37:55;;;;;;;;;1.33;1.33;;;;;;;;4819158;29;8857;-96
2023/08/11 09:40:23;;;;;;;;;2.00;2.00;;;;;;;;4824373;29;8961;-96
2023/08/11 09:42:48;;;;;;;;;3.00;3.00;;;;;;;;4813174;29;8777;-96
2023/08/11 09:45:14;;;;;;;;;2.00;2.00;;;;;;;;4824260;29;8837;-96
2023/08/11 09:47:40;;;;;;;;;3.00;2.00;;;;;;;;4797825;29;8869;-96
2023/08/11 09:50:05;;;;;;;;;3.67;3.00;;;;;;;;4815263;29;8851;-96
2023/08/11 09:52:33;;;;;;;;;2.00;2.00;;;;;;;;4830143;29;11566;-95
2023/08/11 09:54:58;;;;;;;;;2.50;2.50;;;;;;;;4807452;29;8873;-96
2023/08/11 09:57:25;;;;;;;;;2.00;2.00;;;;;;;;4827256;29;8831;-96
2023/08/11 09:59:52;;;;;;;;;2.67;2.67;;;;;;;;4827622;29;8827;-96
2023/08/11 10:02:20;;;;;;;;;2.00;2.00;;;;;;;;4820822;29;8941;-96
2023/08/11 10:04:56;;;;;;;;;2.00;2.00;;;;;;;;4809292;29;9280;-96
2023/08/11 10:07:24;;;;;;;;;3.00;3.00;;;;;;;;4810668;29;8838;-96
2023/08/11 10:09:50;;;;;;;;;2.33;2.33;;;;;;;;4826124;29;9866;-96
2023/08/11 10:12:16;;;;;;;;;3.00;3.00;;;;;;;;4826907;29;9096;-95
2023/08/11 10:14:42;;;;;;;;;1.67;1.67;;;;;;;;4809796;29;8992;-96
2023/08/11 10:17:09;;;;;;;;;3.33;3.33;;;;;;;;4810567;29;9191;-96
2023/08/11 10:19:35;;;;;;;;;1.75;1.75;;;;;;;;4805853;29;9019;-96
2023/08/11 10:22:01;;;;;;;;;2.00;2.00;;;;;;;;4817262;29;8845;-96
2023/08/11 10:24:26;;;;;;;;;3.00;3.00;;;;;;;;4823075;29;8819;-96
2023/08/11 10:26:52;;;;;;;;;2.00;2.00;;;;;;;;4805878;29;9099;-96
2023/08/11 10:29:17;;;;;;;;;2.00;2.00;;;;;;;;4821197;29;8854;-96
2023/08/11 10:31:54;;;;;;;;;2.00;2.00;;;;;;;;4820270;29;8851;-96
2023/08/11 10:34:21;;;;;;;;;2.00;1.00;;;;;;;;4816079;29;8823;-96
2023/08/11 10:36:46;;;;;;;;;2.00;2.00;;;;;;;;4823335;29;8850;-96
2023/08/11 10:39:16;;;;;;;;;1.67;1.67;;;;;;;;4812505;29;9732;-96
2023/08/11 10:41:44;;;;;;;;;2.25;2.25;;;;;;;;4809333;29;8931;-96
2023/08/11 10:44:09;;;;;;;;;2.50;2.50;;;;;;;;4807234;29;8866;-96
2023/08/11 10:46:35;;;;;;;;;2.33;2.33;;;;;;;;4821046;29;8914;-96
2023/08/11 10:49:05;;;;;;;;;2.00;2.00;;;;;;;;4804672;29;8869;-96
2023/08/11 10:51:32;;;;;;;;;1.50;1.50;;;;;;;;4824939;29;8752;-96
2023/08/11 10:54:01;;;;;;;;;2.75;2.75;;;;;;;;4803874;29;8961;-96
2023/08/11 10:56:33;;;;;;;;;3.00;3.00;;;;;;;;4817209;29;9802;-96
2023/08/11 10:59:06;;;;;;;;;2.25;2.25;;;;;;;;4800517;29;8786;-96
2023/08/11 11:01:36;;;;;;;;;2.25;2.25;;;;;;;;4810746;29;8823;-96
2023/08/11 11:04:01;;;;;;;;;3.00;3.00;;;;;;;;4826107;29;8824;-96
2023/08/11 11:06:27;;;;;;;;;3.00;3.00;;;;;;;;4827802;29;8859;-96
2023/08/11 11:08:54;;;;;;;;;3.00;3.00;;;;;;;;4818267;29;8843;-96
2023/08/11 11:11:19;;;;;;;;;3.00;3.00;;;;;;;;4803919;29;9038;-96
2023/08/11 11:13:45;;;;;;;;;4.33;4.33;;;;;;;;4821123;29;9043;-96
2023/08/11 11:16:10;;;;;;;;;4.00;4.00;;;;;;;;4828912;29;8838;-96
2023/08/11 11:18:36;;;;;;;;;2.00;2.00;;;;;;;;4819210;29;8830;-96
2023/08/11 11:21:03;;;;;;;;;5.00;4.75;;;;;;;;4815576;29;9179;-96
2023/08/11 11:23:28;;;;;;;;;2.75;2.75;;;;;;;;4826379;29;8831;-96
2023/08/11 11:25:54;;;;;;;;;4.00;4.00;;;;;;;;4820705;29;8869;-96
2023/08/11 11:28:19;;;;;;;;;3.50;3.50;;;;;;;;4804173;29;8838;-96
2023/08/11 11:30:45;;;;;;;;;3.00;3.00;;;;;;;;4813218;29;8871;-96
2023/08/11 11:33:13;;;;;;;;;3.33;3.33;;;;;;;;4826061;29;8893;-96
2023/08/11 11:35:40;;;;;;;;;3.50;3.50;;;;;;;;4810326;29;8953;-96
2023/08/11 11:38:06;;;;;;;;;3.00;3.00;;;;;;;;4820646;29;8807;-96
2023/08/11 11:40:31;;;;;;;;;3.00;3.00;;;;;;;;4803397;29;8759;-95
2023/08/11 11:42:56;;;;;;;;;3.00;3.00;;;;;;;;4831454;29;8850;-96
2023/08/11 11:45:22;;;;;;;;;3.00;3.00;;;;;;;;4813505;29;9627;-96
2023/08/11 11:47:53;;;;;;;;;5.00;5.00;;;;;;;;4829510;29;8869;-96
2023/08/11 11:50:18;;;;;;;;;2.25;2.25;;;;;;;;4829849;29;8850;-95
2023/08/11 11:52:47;;;;;;;;;2.33;1.33;;;;;;;;4829575;29;9634;-96
2023/08/11 11:55:12;;;;;;;;;2.75;2.75;;;;;;;;4828860;29;8838;-96
2023/08/11 11:57:38;;;;;;;;;3.33;3.33;;;;;;;;4829299;29;8835;-96
2023/08/11 12:00:07;;;;;;;;;2.00;2.00;;;;;;;;4829633;29;8846;-96
2023/08/11 12:02:33;;;;;;;;;2.50;2.50;;;;;;;;4829572;29;8819;-96
2023/08/11 12:04:58;;;;;;;;;3.00;3.00;;;;;;;;4829641;29;8827;-96
2023/08/11 12:07:33;;;;;;;;;3.33;3.33;;;;;;;;4813138;29;8847;-96
2023/08/11 12:09:59;;;;;;;;;4.00;4.00;;;;;;;;4829330;29;8803;-96
2023/08/11 12:12:25;;;;;;;;;2.00;2.00;;;;;;;;4824421;29;9605;-96
2023/08/11 12:14:51;;;;;;;;;2.33;2.33;;;;;;;;4829250;29;8823;-96
2023/08/11 12:17:16;;;;;;;;;3.00;3.00;;;;;;;;4829421;29;8815;-96
2023/08/11 12:19:59;;;;;;;;;4.00;4.00;;;;;;;;4829518;29;8871;-96
2023/08/11 12:22:24;;;;;;;;;0.75;0.75;;;;;;;;4829488;29;8831;-96
2023/08/11 12:24:52;;;;;;;;;4.00;4.00;;;;;;;;4829232;29;8920;-96
2023/08/11 12:27:18;;;;;;;;;2.50;2.50;;;;;;;;4812815;29;8843;-96
2023/08/11 12:29:43;;;;;;;;;4.00;4.00;;;;;;;;4820156;29;8851;-96
2023/08/11 12:32:08;;;;;;;;;4.00;4.00;;;;;;;;4826937;29;9563;-96
2023/08/11 12:34:33;;;;;;;;;3.00;3.00;;;;;;;;4829331;29;8842;-96
2023/08/11 12:36:58;;;;;;;;;4.00;2.33;;;;;;;;4829096;29;8823;-96
2023/08/11 12:39:24;;;;;;;;;2.00;2.00;;;;;;;;4829035;29;8883;-95
2023/08/11 12:41:50;;;;;;;;;2.00;2.00;;;;;;;;4836917;29;8851;-96
2023/08/11 12:44:15;;;;;;;;;2.33;2.33;;;;;;;;4812431;29;8859;-96
2023/08/11 12:46:41;;;;;;;;;4.67;3.67;;;;;;;;4829520;29;8867;-96
2023/08/11 12:49:06;;;;;;;;;4.00;4.00;;;;;;;;4823026;29;8887;-96
2023/08/11 12:51:31;;;;;;;;;3.00;3.00;;;;;;;;4818894;29;9271;-96
2023/08/11 12:53:59;;;;;;;;;4.33;3.33;;;;;;;;4823651;29;9663;-96
2023/08/11 12:56:25;;;;;;;;;3.00;3.00;;;;;;;;4798271;29;8819;-96
2023/08/11 12:58:50;;;;;;;;;3.00;3.00;;;;;;;;4828498;29;8843;-96
2023/08/11 13:01:16;;;;;;;;;2.00;2.00;;;;;;;;4821486;29;8854;-96
2023/08/11 13:03:41;;;;;;;;;2.33;2.33;;;;;;;;4823738;29;8851;-96
2023/08/11 13:06:06;;;;;;;;;4.00;4.00;;;;;;;;4823513;29;8863;-96
2023/08/11 13:08:31;;;;;;;;;4.00;4.00;;;;;;;;4812115;29;9339;-96
2023/08/11 13:10:57;;;;;;;;;4.67;3.33;;;;;;;;4806508;29;8857;-96
2023/08/11 13:13:27;;;;;;;;;3.00;3.00;;;;;;;;4803764;29;8921;-96
2023/08/11 13:15:52;;;;;;;;;2.50;2.00;;;;;;;;4813511;29;8879;-96
2023/08/11 13:18:17;;;;;;;;;2.00;2.00;;;;;;;;4817119;29;8841;-96
2023/08/11 13:20:43;;;;;;;;;3.00;3.00;;;;;;;;4820786;29;8966;-96
2023/08/11 13:23:08;;;;;;;;;2.00;2.00;;;;;;;;4828525;29;8957;-96
2023/08/11 13:25:33;;;;;;;;;3.00;3.00;;;;;;;;4808136;29;8997;-96
2023/08/11 13:27:58;;;;;;;;;2.00;2.00;;;;;;;;4826232;29;8851;-96
2023/08/11 13:30:24;;;;;;;;;3.00;3.00;;;;;;;;4823699;29;9681;-96
2023/08/11 13:32:50;;;;;;;;;3.00;3.00;;;;;;;;4811209;29;8866;-96
2023/08/11 13:35:15;;;;;;;;;2.00;2.00;;;;;;;;4826995;29;8961;-96
2023/08/11 13:37:40;;;;;;;;;2.00;2.00;;;;;;;;4828305;29;8839;-96
2023/08/11 13:40:06;;;;;;;;;2.33;2.33;;;;;;;;4827377;29;8861;-96
2023/08/11 13:42:31;;;;;;;;;3.00;3.00;;;;;;;;4823865;29;8908;-96
2023/08/11 13:44:57;;;;;;;;;2.67;2.67;;;;;;;;4826322;29;8904;-96
2023/08/11 13:47:22;;;;;;;;;1.67;1.67;;;;;;;;4827548;29;9009;-96
2023/08/11 13:49:47;;;;;;;;;3.00;3.00;;;;;;;;4824032;29;8865;-96
2023/08/11 13:52:12;;;;;;;;;2.00;2.00;;;;;;;;4825272;29;8945;-96
2023/08/11 13:54:37;;;;;;;;;3.00;1.00;;;;;;;;4823888;29;8867;-96
2023/08/11 13:57:03;;;;;;;;;2.00;2.00;;;;;;;;4801810;29;8902;-96
2023/08/11 13:59:28;;;;;;;;;2.67;2.67;;;;;;;;4826666;29;8855;-96
2023/08/11 14:01:54;;;;;;;;;1.00;1.00;;;;;;;;4820299;29;8837;-96
2023/08/11 14:04:19;;;;;;;;;2.00;2.00;;;;;;;;4824423;29;8850;-96
2023/08/11 14:06:44;;;;;;;;;2.00;2.00;;;;;;;;4826772;29;8850;-95
2023/08/11 14:09:09;;;;;;;;;1.67;1.67;;;;;;;;4810302;29;8893;-96
2023/08/11 14:11:35;;;;;;;;;1.00;1.00;;;;;;;;4827196;29;8873;-96
2023/08/11 14:14:00;;;;;;;;;2.33;2.33;;;;;;;;4822394;29;9166;-96
2023/08/11 14:16:25;;;;;;;;;1.67;1.67;;;;;;;;4823755;29;8887;-95
2023/08/11 14:18:50;;;;;;;;;1.33;1.33;;;;;;;;4825431;29;8847;-96
2023/08/11 14:21:18;;;;;;;;;2.00;2.00;;;;;;;;4829190;29;9638;-96
2023/08/11 14:23:43;;;;;;;;;3.00;2.00;;;;;;;;4827453;29;8835;-96
2023/08/11 14:26:08;;;;;;;;;2.00;2.00;;;;;;;;4827665;29;8854;-96
2023/08/11 14:28:34;;;;;;;;;2.00;2.00;;;;;;;;4826122;29;8919;-96
2023/08/11 14:31:08;;;;;;;;;2.00;2.00;;;;;;;;5150728;27;13488;-95
2023/08/11 14:33:34;;;;;;;;;1.00;1.00;;;;;;;;5149974;27;8819;-95
2023/08/11 14:35:59;;;;;;;;;1.00;1.00;;;;;;;;5133200;27;8843;-94
2023/08/11 14:38:24;;;;;;;;;1.00;1.00;;;;;;;;5134329;27;8937;-95
2023/08/11 14:40:49;;;;;;;;;2.00;2.00;;;;;;;;5123245;27;8817;-95
2023/08/11 14:43:15;;;;;;;;;2.00;2.00;;;;;;;;5115885;27;8818;-94
2023/08/11 14:45:40;;;;;;;;;2.00;2.00;;;;;;;;5130311;27;8799;-94
2023/08/11 14:48:08;;;;;;;;;2.33;2.33;;;;;;;;5129739;27;8900;-94
2023/08/11 14:50:33;;;;;;;;;2.00;2.00;;;;;;;;5132749;27;8807;-94
2023/08/11 14:52:58;;;;;;;;;4.00;1.00;;;;;;;;5133334;27;8815;-94
2023/08/11 14:55:24;;;;;;;;;0.67;0.67;;;;;;;;5124009;27;8856;-94
2023/08/11 14:57:49;;;;;;;;;1.00;1.00;;;;;;;;5128272;27;8935;-94
2023/08/11 15:00:14;;;;;;;;;1.00;1.00;;;;;;;;5131992;27;8969;-95
2023/08/11 15:02:40;;;;;;;;;2.00;2.00;;;;;;;;5124228;27;8825;-94
2023/08/11 15:05:05;;;;;;;;;1.00;1.00;;;;;;;;5128254;27;8821;-95
2023/08/11 15:07:31;;;;;;;;;1.00;1.00;;;;;;;;5122603;27;8839;-95
2023/08/11 15:09:56;;;;;;;;;2.00;2.00;;;;;;;;5128134;27;8919;-95
2023/08/11 15:12:22;;;;;;;;;1.33;1.33;;;;;;;;5128794;27;8842;-94
2023/08/11 15:14:48;;;;;;;;;1.25;1.00;;;;;;;;5131537;27;8754;-94
2023/08/11 15:17:13;;;;;;;;;1.67;1.67;;;;;;;;5119000;27;8799;-95
2023/08/11 15:19:38;;;;;;;;;2.00;2.00;;;;;;;;5131343;27;8811;-94
2023/08/11 15:22:04;;;;;;;;;1.00;1.00;;;;;;;;5133695;27;8822;-94
2023/08/11 15:24:29;;;;;;;;;1.00;1.00;;;;;;;;5131001;27;8835;-95
2023/08/11 15:26:54;;;;;;;;;1.00;1.00;;;;;;;;5129991;27;8815;-95